createdAt,value
2023-03-12T00:00:55.558Z,2.40
2023-03-12T00:05:59.162Z,2.00
2023-03-12T00:11:08.357Z,1.55
2023-03-12T00:16:16.088Z,1.70
2023-03-12T00:21:18.968Z,2.00
2023-03-12T00:26:21.514Z,1.90
2023-03-12T00:31:28.971Z,1.85
2023-03-12T00:36:32.306Z,1.80
2023-03-12T00:41:34.600Z,1.73
2023-03-12T00:46:36.766Z,1.92
2023-03-12T00:51:38.848Z,1.40
2023-03-12T00:56:40.935Z,1.43
2023-03-12T01:01:43.635Z,1.62
2023-03-12T01:06:45.703Z,1.23
2023-03-12T01:11:47.765Z,1.30
2023-03-12T01:16:52.391Z,1.33
2023-03-12T01:21:54.688Z,1.48
2023-03-12T01:26:57.369Z,1.60
2023-03-12T01:31:59.456Z,1.40
2023-03-12T01:37:01.921Z,1.17
2023-03-12T01:42:04.390Z,1.30
2023-03-12T01:47:06.428Z,1.30
2023-03-12T01:52:15.262Z,1.60
2023-03-12T01:57:22.250Z,1.30
2023-03-12T02:02:28.653Z,1.20
2023-03-12T02:07:30.782Z,1.50
2023-03-12T02:12:32.933Z,1.40
2023-03-12T02:17:36.838Z,1.57
2023-03-12T02:22:41.898Z,1.80
2023-03-12T02:27:44.160Z,1.48
2023-03-12T02:32:48.585Z,1.53
2023-03-12T02:37:53.881Z,1.63
2023-03-12T02:42:56.462Z,1.33
2023-03-12T02:47:59.028Z,1.30
2023-03-12T02:53:01.068Z,1.47
2023-03-12T02:58:03.131Z,1.92
2023-03-12T03:03:05.470Z,2.05
2023-03-12T03:08:07.861Z,1.93
2023-03-12T03:13:09.963Z,1.95
2023-03-12T03:18:12.109Z,2.33
2023-03-12T03:23:14.207Z,2.30
2023-03-12T03:28:16.268Z,2.80
2023-03-12T03:33:18.365Z,2.92
2023-03-12T03:38:20.405Z,2.85
2023-03-12T03:43:22.609Z,2.90
2023-03-12T03:48:25.133Z,2.90
2023-03-12T03:53:27.198Z,3.10
2023-03-12T03:58:29.238Z,3.63
2023-03-12T04:03:31.482Z,2.70
2023-03-12T04:08:37.173Z,3.35
2023-03-12T04:13:39.312Z,3.13
2023-03-12T04:18:41.429Z,3.13
2023-03-12T04:23:43.633Z,3.70
2023-03-12T04:28:45.715Z,4.28
2023-03-12T04:33:47.793Z,3.20
2023-03-12T04:38:49.926Z,3.87
2023-03-12T04:43:51.972Z,4.15
2023-03-12T04:48:54.122Z,3.27
2023-03-12T04:53:56.386Z,3.50
2023-03-12T04:58:58.491Z,4.03
2023-03-12T05:04:00.917Z,4.03
2023-03-12T05:09:03.989Z,4.23
2023-03-12T05:14:06.092Z,4.50
2023-03-12T05:19:08.210Z,4.55
2023-03-12T05:24:12.939Z,4.33
2023-03-12T05:29:15.322Z,4.18
2023-03-12T05:34:17.491Z,4.68
2023-03-12T05:39:19.727Z,5.27
2023-03-12T05:44:21.793Z,4.65
2023-03-12T05:49:23.931Z,4.87
2023-03-12T05:54:26.567Z,4.97
2023-03-12T05:59:29.525Z,4.90
2023-03-12T06:04:31.710Z,5.25
2023-03-12T06:09:33.897Z,5.30
2023-03-12T06:14:36.086Z,5.23
2023-03-12T06:19:38.172Z,4.50
2023-03-12T06:24:42.575Z,4.80
2023-03-12T06:29:46.998Z,5.43
2023-03-12T06:34:49.119Z,5.50
2023-03-12T06:39:51.754Z,4.47
2023-03-12T06:44:54.000Z,4.93
2023-03-12T06:49:56.087Z,4.77
2023-03-12T06:54:58.161Z,5.05
2023-03-12T07:00:00.249Z,5.35
2023-03-12T07:05:02.365Z,4.70
2023-03-12T07:10:06.550Z,4.68
2023-03-12T07:15:09.105Z,4.28
2023-03-12T07:20:11.769Z,4.93
2023-03-12T07:25:13.854Z,5.07
2023-03-12T07:30:16.146Z,5.40
2023-03-12T07:35:18.508Z,4.80
2023-03-12T07:40:21.482Z,4.47
2023-03-12T07:45:24.496Z,5.45
2023-03-12T07:50:26.662Z,5.30
2023-03-12T07:55:28.883Z,5.13
2023-03-12T08:00:31.867Z,4.78
2023-03-12T08:05:34.006Z,4.65
2023-03-12T08:10:37.200Z,4.83
2023-03-12T08:15:39.358Z,4.95
2023-03-12T08:20:41.470Z,4.53
2023-03-12T08:25:47.171Z,4.73
2023-03-12T08:30:54.874Z,4.47
2023-03-12T08:35:56.989Z,4.65
2023-03-12T08:41:00.879Z,4.82
2023-03-12T08:46:04.209Z,4.70
2023-03-12T08:51:07.643Z,4.70
2023-03-12T08:56:09.712Z,4.70
2023-03-12T09:01:13.410Z,4.20
2023-03-12T09:06:16.838Z,4.43
2023-03-12T09:11:19.043Z,4.53
2023-03-12T09:16:21.144Z,4.07
2023-03-12T09:21:23.267Z,3.40
2023-03-12T09:26:25.383Z,3.80
2023-03-12T09:31:27.632Z,3.67
2023-03-12T09:36:29.758Z,4.10
2023-03-12T09:41:35.885Z,3.87
2023-03-12T09:46:44.124Z,3.78
2023-03-12T09:51:52.466Z,3.67
2023-03-12T09:56:57.298Z,3.10
2023-03-12T10:02:06.456Z,2.92
2023-03-12T10:07:23.838Z,2.87
2023-03-12T10:12:52.866Z,2.67
2023-03-12T10:18:08.798Z,2.22
2023-03-12T10:23:23.429Z,2.85
2023-03-12T10:28:41.786Z,2.37
2023-03-12T10:33:50.345Z,2.45
2023-03-12T10:38:52.433Z,2.22
2023-03-12T10:43:57.255Z,2.47
2023-03-12T10:49:38.503Z,3.00
2023-03-12T10:54:43.693Z,2.37
2023-03-12T10:59:47.894Z,2.00
2023-03-12T11:04:53.462Z,2.03
2023-03-12T11:10:07.574Z,2.30
2023-03-12T11:15:24.883Z,2.28
2023-03-12T11:20:29.812Z,2.00
2023-03-12T11:25:31.958Z,1.80
2023-03-12T11:30:40.014Z,1.98
2023-03-12T11:36:04.484Z,1.70
2023-03-12T11:41:09.582Z,2.08
2023-03-12T11:46:11.929Z,1.90
2023-03-12T11:51:22.799Z,2.23
2023-03-12T11:56:27.749Z,1.80
2023-03-12T12:01:43.956Z,1.67
2023-03-12T12:07:17.025Z,1.58
2023-03-12T12:12:48.268Z,1.20
2023-03-12T12:18:24.667Z,1.50
2023-03-12T12:23:45.035Z,1.12
2023-03-12T12:29:17.028Z,1.23
2023-03-12T12:34:37.968Z,1.02
2023-03-12T12:39:47.029Z,1.08
2023-03-12T12:44:52.562Z,1.10
2023-03-12T12:49:58.263Z,1.00
2023-03-12T12:55:19.629Z,0.98
2023-03-12T13:00:41.996Z,0.30
2023-03-12T13:05:55.032Z,0.50
2023-03-12T13:11:06.227Z,0.30
2023-03-12T13:16:21.799Z,0.20
2023-03-12T13:21:38.038Z,0.20
2023-03-12T13:27:21.295Z,0.60
2023-03-12T13:32:35.374Z,0.20
2023-03-12T13:37:46.508Z,1.13
2023-03-12T13:43:09.906Z,1.70
2023-03-12T13:48:18.226Z,1.77
2023-03-12T13:53:33.611Z,1.17
2023-03-12T13:58:50.304Z,1.30
2023-03-12T14:04:03.971Z,1.27
2023-03-12T14:09:24.162Z,1.08
2023-03-12T14:14:48.377Z,1.20
2023-03-12T14:20:12.020Z,1.20
2023-03-12T14:25:33.425Z,1.10
2023-03-12T14:30:41.798Z,1.30
2023-03-12T14:35:51.313Z,1.57
2023-03-12T14:40:53.332Z,1.17
2023-03-12T14:46:00.925Z,0.93
2023-03-12T14:51:05.383Z,0.73
2023-03-12T14:56:13.376Z,1.02
2023-03-12T15:01:19.334Z,0.93
2023-03-12T15:06:30.333Z,1.10
2023-03-12T15:11:35.934Z,1.00
2023-03-12T15:16:38.597Z,1.12
2023-03-12T15:21:40.899Z,1.00
2023-03-12T15:26:43.902Z,0.70
2023-03-12T15:31:48.576Z,1.00
2023-03-12T15:36:51.754Z,1.00
2023-03-12T15:41:56.442Z,1.10
2023-03-12T15:47:13.251Z,0.90
2023-03-12T15:52:24.798Z,1.20
2023-03-12T15:57:26.887Z,1.23
2023-03-12T16:02:46.575Z,1.60
2023-03-12T16:07:49.234Z,1.30
2023-03-12T16:12:59.772Z,1.30
2023-03-12T16:18:02.142Z,1.10
2023-03-12T16:23:04.283Z,1.25
2023-03-12T16:28:06.953Z,1.20
2023-03-12T16:33:13.360Z,0.90
2023-03-12T16:38:15.484Z,1.75
2023-03-12T16:43:23.386Z,1.40
2023-03-12T16:48:26.499Z,1.40
2023-03-12T16:53:28.734Z,1.60
2023-03-12T16:58:31.218Z,1.40
2023-03-12T17:03:36.400Z,1.40
2023-03-12T17:08:39.512Z,1.40
2023-03-12T17:13:41.785Z,1.70
2023-03-12T17:18:44.185Z,1.40
2023-03-12T17:23:50.049Z,1.50
2023-03-12T17:28:52.160Z,1.80
2023-03-12T17:33:54.265Z,1.70
2023-03-12T17:38:56.770Z,1.60
2023-03-12T17:44:01.646Z,1.70
2023-03-12T17:49:04.012Z,1.65
2023-03-12T17:54:06.227Z,1.87
2023-03-12T17:59:08.307Z,1.90
2023-03-12T18:04:10.521Z,1.60
2023-03-12T18:09:12.643Z,1.80
2023-03-12T18:14:14.762Z,1.77
2023-03-12T18:19:17.224Z,1.60
2023-03-12T18:24:19.906Z,2.65
2023-03-12T18:29:22.003Z,2.40
2023-03-12T18:34:24.093Z,2.28
2023-03-12T18:39:26.411Z,1.80
2023-03-12T18:44:28.626Z,2.40
2023-03-12T18:49:30.815Z,2.30
2023-03-12T18:54:33.762Z,2.30
2023-03-12T18:59:35.874Z,2.50
2023-03-12T19:04:38.177Z,2.33
2023-03-12T19:09:40.329Z,2.00
2023-03-12T19:14:42.489Z,2.12
2023-03-12T19:19:44.611Z,2.20
2023-03-12T19:24:47.924Z,3.35
2023-03-12T19:29:50.087Z,3.40
2023-03-12T19:34:52.464Z,3.50
2023-03-12T19:39:54.642Z,4.10
2023-03-12T19:44:56.827Z,4.30
2023-03-12T19:49:59.316Z,4.35
2023-03-12T19:55:05.207Z,4.73
2023-03-12T20:00:10.555Z,4.15
2023-03-12T20:05:13.193Z,4.18
2023-03-12T20:10:15.754Z,3.90
2023-03-12T20:15:18.353Z,4.25
2023-03-12T20:20:20.732Z,4.50
2023-03-12T20:25:22.917Z,4.57
2023-03-12T20:30:25.054Z,4.50
2023-03-12T20:35:27.593Z,5.62
2023-03-12T20:40:29.924Z,5.03
